sensor_id;sensor_type;location;lat;lon;timestamp;temperature;humidity
68867;SHT30;56451;44.804;20.476;2024-02-21T00:01:40;11.95;61.55
68867;SHT30;56451;44.804;20.476;2024-02-21T00:04:06;11.92;61.56
68867;SHT30;56451;44.804;20.476;2024-02-21T00:06:32;11.92;61.56
68867;SHT30;56451;44.804;20.476;2024-02-21T00:08:58;11.93;61.41
68867;SHT30;56451;44.804;20.476;2024-02-21T00:11:24;11.86;61.57
68867;SHT30;56451;44.804;20.476;2024-02-21T00:14:10;11.91;61.52
68867;SHT30;56451;44.804;20.476;2024-02-21T00:16:55;11.88;61.46
68867;SHT30;56451;44.804;20.476;2024-02-21T00:19:41;11.89;61.60
68867;SHT30;56451;44.804;20.476;2024-02-21T00:22:27;11.81;61.92
68867;SHT30;56451;44.804;20.476;2024-02-21T00:25:13;11.75;62.05
68867;SHT30;56451;44.804;20.476;2024-02-21T00:27:59;11.74;62.17
68867;SHT30;56451;44.804;20.476;2024-02-21T00:30:44;11.75;61.94
68867;SHT30;56451;44.804;20.476;2024-02-21T00:33:30;11.78;62.02
68867;SHT30;56451;44.804;20.476;2024-02-21T00:36:16;11.77;62.02
68867;SHT30;56451;44.804;20.476;2024-02-21T00:39:02;11.79;61.87
68867;SHT30;56451;44.804;20.476;2024-02-21T00:41:28;11.81;61.98
68867;SHT30;56451;44.804;20.476;2024-02-21T00:43:54;11.85;61.62
68867;SHT30;56451;44.804;20.476;2024-02-21T00:46:20;11.85;61.48
68867;SHT30;56451;44.804;20.476;2024-02-21T00:48:45;11.83;61.39
68867;SHT30;56451;44.804;20.476;2024-02-21T00:51:11;11.88;61.24
68867;SHT30;56451;44.804;20.476;2024-02-21T00:53:37;11.91;61.13
68867;SHT30;56451;44.804;20.476;2024-02-21T00:56:05;11.91;61.06
68867;SHT30;56451;44.804;20.476;2024-02-21T00:58:51;11.85;61.07
68867;SHT30;56451;44.804;20.476;2024-02-21T01:01:37;11.81;61.14
68867;SHT30;56451;44.804;20.476;2024-02-21T01:04:22;11.78;61.25
68867;SHT30;56451;44.804;20.476;2024-02-21T01:07:08;11.82;61.22
68867;SHT30;56451;44.804;20.476;2024-02-21T01:09:54;11.74;61.33
68867;SHT30;56451;44.804;20.476;2024-02-21T01:12:40;11.68;61.58
68867;SHT30;56451;44.804;20.476;2024-02-21T01:15:26;11.68;61.58
68867;SHT30;56451;44.804;20.476;2024-02-21T01:18:12;11.68;61.54
68867;SHT30;56451;44.804;20.476;2024-02-21T01:20:57;11.65;61.60
68867;SHT30;56451;44.804;20.476;2024-02-21T01:23:43;11.61;61.68
68867;SHT30;56451;44.804;20.476;2024-02-21T01:26:29;11.58;61.91
68867;SHT30;56451;44.804;20.476;2024-02-21T01:29:15;11.58;61.88
68867;SHT30;56451;44.804;20.476;2024-02-21T01:31:40;11.50;62.03
68867;SHT30;56451;44.804;20.476;2024-02-21T01:34:06;11.50;62.20
68867;SHT30;56451;44.804;20.476;2024-02-21T01:36:32;11.48;62.30
68867;SHT30;56451;44.804;20.476;2024-02-21T01:38:58;11.52;62.19
68867;SHT30;56451;44.804;20.476;2024-02-21T01:41:24;11.47;62.19
68867;SHT30;56451;44.804;20.476;2024-02-21T01:43:50;11.44;62.27
68867;SHT30;56451;44.804;20.476;2024-02-21T01:46:25;11.44;62.26
68867;SHT30;56451;44.804;20.476;2024-02-21T01:48:57;11.40;62.53
68867;SHT30;56451;44.804;20.476;2024-02-21T01:51:24;11.35;62.79
68867;SHT30;56451;44.804;20.476;2024-02-21T01:53:51;11.35;62.77
68867;SHT30;56451;44.804;20.476;2024-02-21T01:56:17;11.34;62.87
68867;SHT30;56451;44.804;20.476;2024-02-21T01:58:44;11.37;62.72
68867;SHT30;56451;44.804;20.476;2024-02-21T02:01:12;11.37;62.65
68867;SHT30;56451;44.804;20.476;2024-02-21T02:03:38;11.35;62.78
68867;SHT30;56451;44.804;20.476;2024-02-21T02:06:05;11.37;62.79
68867;SHT30;56451;44.804;20.476;2024-02-21T02:08:35;11.33;62.86
68867;SHT30;56451;44.804;20.476;2024-02-21T02:11:01;11.37;62.82
68867;SHT30;56451;44.804;20.476;2024-02-21T02:13:27;11.38;62.88
68867;SHT30;56451;44.804;20.476;2024-02-21T02:15:54;11.35;62.80
68867;SHT30;56451;44.804;20.476;2024-02-21T02:18:20;11.33;62.93
68867;SHT30;56451;44.804;20.476;2024-02-21T02:20:47;11.33;62.98
68867;SHT30;56451;44.804;20.476;2024-02-21T02:23:29;11.38;62.87
68867;SHT30;56451;44.804;20.476;2024-02-21T02:25:55;11.40;62.76
68867;SHT30;56451;44.804;20.476;2024-02-21T02:28:21;11.44;62.45
68867;SHT30;56451;44.804;20.476;2024-02-21T02:30:48;11.43;62.53
68867;SHT30;56451;44.804;20.476;2024-02-21T02:33:14;11.48;62.41
68867;SHT30;56451;44.804;20.476;2024-02-21T02:35:40;11.51;62.06
68867;SHT30;56451;44.804;20.476;2024-02-21T02:38:06;11.55;61.91
68867;SHT30;56451;44.804;20.476;2024-02-21T02:40:37;11.50;61.95
68867;SHT30;56451;44.804;20.476;2024-02-21T02:43:03;11.50;62.06
68867;SHT30;56451;44.804;20.476;2024-02-21T02:45:29;11.52;61.92
68867;SHT30;56451;44.804;20.476;2024-02-21T02:47:56;11.51;61.90
68867;SHT30;56451;44.804;20.476;2024-02-21T02:50:23;11.55;61.65
68867;SHT30;56451;44.804;20.476;2024-02-21T02:52:49;11.55;61.63
68867;SHT30;56451;44.804;20.476;2024-02-21T02:55:15;11.57;61.78
68867;SHT30;56451;44.804;20.476;2024-02-21T02:57:42;11.57;61.65
68867;SHT30;56451;44.804;20.476;2024-02-21T03:00:11;11.51;61.83
68867;SHT30;56451;44.804;20.476;2024-02-21T03:02:39;11.52;61.95
68867;SHT30;56451;44.804;20.476;2024-02-21T03:05:16;11.52;61.85
68867;SHT30;56451;44.804;20.476;2024-02-21T03:07:42;11.48;62.07
68867;SHT30;56451;44.804;20.476;2024-02-21T03:10:09;11.51;61.76
68867;SHT30;56451;44.804;20.476;2024-02-21T03:12:35;11.48;61.98
68867;SHT30;56451;44.804;20.476;2024-02-21T03:15:01;11.50;62.05
68867;SHT30;56451;44.804;20.476;2024-02-21T03:17:27;11.40;62.09
68867;SHT30;56451;44.804;20.476;2024-02-21T03:19:53;11.40;62.17
68867;SHT30;56451;44.804;20.476;2024-02-21T03:22:21;11.34;62.35
68867;SHT30;56451;44.804;20.476;2024-02-21T03:24:47;11.33;62.39
68867;SHT30;56451;44.804;20.476;2024-02-21T03:27:13;11.33;62.30
68867;SHT30;56451;44.804;20.476;2024-02-21T03:29:39;11.37;62.37
68867;SHT30;56451;44.804;20.476;2024-02-21T03:32:05;11.33;62.36
68867;SHT30;56451;44.804;20.476;2024-02-21T03:34:31;11.27;62.70
68867;SHT30;56451;44.804;20.476;2024-02-21T03:36:57;11.30;62.54
68867;SHT30;56451;44.804;20.476;2024-02-21T03:39:24;11.31;62.51
68867;SHT30;56451;44.804;20.476;2024-02-21T03:41:50;11.24;62.70
68867;SHT30;56451;44.804;20.476;2024-02-21T03:44:16;11.19;62.87
68867;SHT30;56451;44.804;20.476;2024-02-21T03:46:42;11.17;63.13
68867;SHT30;56451;44.804;20.476;2024-02-21T03:49:08;11.13;63.19
68867;SHT30;56451;44.804;20.476;2024-02-21T03:51:34;11.17;62.90
68867;SHT30;56451;44.804;20.476;2024-02-21T03:54:01;11.13;62.95
68867;SHT30;56451;44.804;20.476;2024-02-21T03:56:26;11.16;63.02
68867;SHT30;56451;44.804;20.476;2024-02-21T03:58:53;11.13;62.85
68867;SHT30;56451;44.804;20.476;2024-02-21T04:01:19;11.12;62.95
68867;SHT30;56451;44.804;20.476;2024-02-21T04:03:45;11.07;62.84
68867;SHT30;56451;44.804;20.476;2024-02-21T04:06:10;11.07;62.84
68867;SHT30;56451;44.804;20.476;2024-02-21T04:08:36;11.07;63.00
68867;SHT30;56451;44.804;20.476;2024-02-21T04:11:02;11.09;62.91
68867;SHT30;56451;44.804;20.476;2024-02-21T04:13:28;11.07;62.99
68867;SHT30;56451;44.804;20.476;2024-02-21T04:15:54;11.07;63.00
68867;SHT30;56451;44.804;20.476;2024-02-21T04:18:20;10.99;63.14
68867;SHT30;56451;44.804;20.476;2024-02-21T04:20:46;11.02;63.25
68867;SHT30;56451;44.804;20.476;2024-02-21T04:23:12;11.00;63.25
68867;SHT30;56451;44.804;20.476;2024-02-21T04:25:38;10.93;63.39
68867;SHT30;56451;44.804;20.476;2024-02-21T04:28:04;10.73;63.98
68867;SHT30;56451;44.804;20.476;2024-02-21T04:30:30;10.56;64.46
68867;SHT30;56451;44.804;20.476;2024-02-21T04:32:56;10.49;64.95
68867;SHT30;56451;44.804;20.476;2024-02-21T04:35:22;10.45;65.03
68867;SHT30;56451;44.804;20.476;2024-02-21T04:37:49;10.35;65.44
68867;SHT30;56451;44.804;20.476;2024-02-21T04:40:15;10.37;65.53
68867;SHT30;56451;44.804;20.476;2024-02-21T04:42:42;10.27;65.63
68867;SHT30;56451;44.804;20.476;2024-02-21T04:45:09;10.27;65.76
68867;SHT30;56451;44.804;20.476;2024-02-21T04:47:35;10.25;65.87
68867;SHT30;56451;44.804;20.476;2024-02-21T04:50:00;10.31;65.82
68867;SHT30;56451;44.804;20.476;2024-02-21T04:52:26;10.34;65.74
68867;SHT30;56451;44.804;20.476;2024-02-21T04:54:52;10.37;65.60
68867;SHT30;56451;44.804;20.476;2024-02-21T04:57:18;10.44;65.29
68867;SHT30;56451;44.804;20.476;2024-02-21T04:59:44;10.45;65.20
68867;SHT30;56451;44.804;20.476;2024-02-21T05:02:11;10.44;65.22
68867;SHT30;56451;44.804;20.476;2024-02-21T05:04:37;10.44;65.26
68867;SHT30;56451;44.804;20.476;2024-02-21T05:07:04;10.48;65.15
68867;SHT30;56451;44.804;20.476;2024-02-21T05:09:31;10.46;64.84
68867;SHT30;56451;44.804;20.476;2024-02-21T05:11:57;10.51;64.82
68867;SHT30;56451;44.804;20.476;2024-02-21T05:14:25;10.56;64.54
68867;SHT30;56451;44.804;20.476;2024-02-21T05:16:52;10.54;64.77
68867;SHT30;56451;44.804;20.476;2024-02-21T05:19:18;10.46;64.85
68867;SHT30;56451;44.804;20.476;2024-02-21T05:21:44;10.55;64.70
68867;SHT30;56451;44.804;20.476;2024-02-21T05:24:11;10.55;64.52
68867;SHT30;56451;44.804;20.476;2024-02-21T05:26:37;10.51;64.69
68867;SHT30;56451;44.804;20.476;2024-02-21T05:29:03;10.48;64.65
68867;SHT30;56451;44.804;20.476;2024-02-21T05:32:03;10.54;64.69
68867;SHT30;56451;44.804;20.476;2024-02-21T05:34:29;10.49;64.61
68867;SHT30;56451;44.804;20.476;2024-02-21T05:36:55;10.51;64.74
68867;SHT30;56451;44.804;20.476;2024-02-21T05:39:20;10.49;64.74
68867;SHT30;56451;44.804;20.476;2024-02-21T05:41:49;10.58;64.54
68867;SHT30;56451;44.804;20.476;2024-02-21T05:44:15;10.65;64.30
68867;SHT30;56451;44.804;20.476;2024-02-21T05:46:42;10.65;64.31
68867;SHT30;56451;44.804;20.476;2024-02-21T05:49:08;10.62;64.30
68867;SHT30;56451;44.804;20.476;2024-02-21T05:51:34;10.64;64.28
68867;SHT30;56451;44.804;20.476;2024-02-21T05:54:00;10.68;64.13
68867;SHT30;56451;44.804;20.476;2024-02-21T05:56:26;10.66;64.11
68867;SHT30;56451;44.804;20.476;2024-02-21T05:59:12;10.68;63.99
68867;SHT30;56451;44.804;20.476;2024-02-21T06:01:58;10.62;64.34
68867;SHT30;56451;44.804;20.476;2024-02-21T06:04:44;10.69;63.93
68867;SHT30;56451;44.804;20.476;2024-02-21T06:07:23;10.65;63.98
68867;SHT30;56451;44.804;20.476;2024-02-21T06:09:49;10.69;63.86
68867;SHT30;56451;44.804;20.476;2024-02-21T06:12:15;10.69;63.64
68867;SHT30;56451;44.804;20.476;2024-02-21T06:14:41;10.65;63.79
68867;SHT30;56451;44.804;20.476;2024-02-21T06:17:07;10.64;63.97
68867;SHT30;56451;44.804;20.476;2024-02-21T06:19:33;10.62;63.94
68867;SHT30;56451;44.804;20.476;2024-02-21T06:21:58;10.59;63.73
68867;SHT30;56451;44.804;20.476;2024-02-21T06:24:24;10.61;63.77
68867;SHT30;56451;44.804;20.476;2024-02-21T06:26:50;10.56;63.84
68867;SHT30;56451;44.804;20.476;2024-02-21T06:29:16;10.55;63.74
68867;SHT30;56451;44.804;20.476;2024-02-21T06:31:42;10.58;63.77
68867;SHT30;56451;44.804;20.476;2024-02-21T06:34:08;10.58;63.82
68867;SHT30;56451;44.804;20.476;2024-02-21T06:36:34;10.61;63.73
68867;SHT30;56451;44.804;20.476;2024-02-21T06:39:00;10.68;63.44
68867;SHT30;56451;44.804;20.476;2024-02-21T06:41:25;10.59;63.34
68867;SHT30;56451;44.804;20.476;2024-02-21T06:43:51;10.62;63.16
68867;SHT30;56451;44.804;20.476;2024-02-21T06:46:24;10.64;63.26
68867;SHT30;56451;44.804;20.476;2024-02-21T06:48:50;10.68;63.11
68867;SHT30;56451;44.804;20.476;2024-02-21T06:51:17;10.73;63.11
68867;SHT30;56451;44.804;20.476;2024-02-21T06:53:42;10.79;62.90
68867;SHT30;56451;44.804;20.476;2024-02-21T06:56:10;10.86;62.51
68867;SHT30;56451;44.804;20.476;2024-02-21T06:58:36;10.89;62.52
68867;SHT30;56451;44.804;20.476;2024-02-21T07:01:02;10.93;62.40
68867;SHT30;56451;44.804;20.476;2024-02-21T07:03:47;10.95;62.35
68867;SHT30;56451;44.804;20.476;2024-02-21T07:06:35;10.89;62.61
68867;SHT30;56451;44.804;20.476;2024-02-21T07:09:24;10.88;62.57
68867;SHT30;56451;44.804;20.476;2024-02-21T07:12:10;10.91;62.57
68867;SHT30;56451;44.804;20.476;2024-02-21T07:14:55;10.83;62.65
68867;SHT30;56451;44.804;20.476;2024-02-21T07:17:41;10.88;62.61
68867;SHT30;56451;44.804;20.476;2024-02-21T07:20:27;10.89;62.65
68867;SHT30;56451;44.804;20.476;2024-02-21T07:22:54;10.89;62.57
68867;SHT30;56451;44.804;20.476;2024-02-21T07:25:40;10.96;62.59
68867;SHT30;56451;44.804;20.476;2024-02-21T07:28:26;10.96;62.43
68867;SHT30;56451;44.804;20.476;2024-02-21T07:31:10;10.92;62.85
68867;SHT30;56451;44.804;20.476;2024-02-21T07:33:59;10.92;62.86
68867;SHT30;56451;44.804;20.476;2024-02-21T07:36:45;10.92;63.00
68867;SHT30;56451;44.804;20.476;2024-02-21T07:39:31;10.96;62.91
68867;SHT30;56451;44.804;20.476;2024-02-21T07:42:16;11.02;62.56
68867;SHT30;56451;44.804;20.476;2024-02-21T07:45:02;10.97;62.70
68867;SHT30;56451;44.804;20.476;2024-02-21T07:47:48;10.82;63.07
68867;SHT30;56451;44.804;20.476;2024-02-21T07:50:34;10.76;63.50
68867;SHT30;56451;44.804;20.476;2024-02-21T07:53:20;10.79;64.07
68867;SHT30;56451;44.804;20.476;2024-02-21T07:56:06;10.85;63.45
68867;SHT30;56451;44.804;20.476;2024-02-21T07:58:52;10.75;63.76
